Time,TemperatureF,DewpointF,PressureIn,WindDirection,WindDirectionDegrees,WindSpeedMPH,WindSpeedGustMPH,Humidity,HourlyPrecipIn,Conditions,Clouds,dailyrainin,SoftwareType,DateUTC
2013-01-12 00:01:00,45.0,39.2,30.23,North,9,3.0,4.0,80,0.00,,,0.00,LWC V2.10 B1813,2013-01-12 08:01:00,
2013-01-12 00:06:00,44.4,38.0,30.23,NW,323,1.0,1.0,78,0.00,,,0.00,LWC V2.10 B1813,2013-01-12 08:06:00,
2013-01-12 00:11:00,43.7,37.6,30.23,NW,316,2.0,2.0,79,0.00,,,0.00,LWC V2.10 B1813,2013-01-12 08:11:00,
2013-01-12 00:15:00,43.3,37.6,30.23,NW,321,1.0,3.0,80,0.00,,,0.00,LWC V2.10 B1813,2013-01-12 08:15:00,
2013-01-12 00:20:00,43.0,37.3,30.22,NW,317,2.0,3.0,80,0.00,,,0.00,LWC V2.10 B1813,2013-01-12 08:20:00,
2013-01-12 00:25:00,43.0,37.6,30.22,NNW,327,1.0,1.0,81,0.00,,,0.00,LWC V2.10 B1813,2013-01-12 08:25:00,
2013-01-12 00:30:00,43.0,37.9,30.22,North,350,1.0,3.0,82,0.00,,,0.00,LWC V2.10 B1813,2013-01-12 08:30:00,
2013-01-12 00:35:00,43.2,37.8,30.23,NW,319,1.0,4.0,81,0.00,,,0.00,LWC V2.10 B1813,2013-01-12 08:35:00,
2013-01-12 00:40:00,43.3,38.2,30.23,North,349,2.0,3.0,82,0.00,,,0.00,LWC V2.10 B1813,2013-01-12 08:40:00,
2013-01-12 00:45:00,43.4,38.3,30.22,NW,319,2.0,3.0,82,0.00,,,0.00,LWC V2.10 B1813,2013-01-12 08:45:00,
2013-01-12 00:50:00,43.3,37.6,30.22,NW,325,1.0,2.0,80,0.00,,,0.00,LWC V2.10 B1813,2013-01-12 08:50:00,
2013-01-12 00:55:00,43.0,37.6,30.22,NW,321,0.0,2.0,81,0.00,,,0.00,LWC V2.10 B1813,2013-01-12 08:55:00,
2013-01-12 01:00:00,42.9,37.5,30.22,North,351,2.0,2.0,81,0.00,,,0.00,LWC V2.10 B1813,2013-01-12 09:00:00,
2013-01-12 01:05:00,42.8,37.4,30.22,NNE,23,2.0,2.0,81,0.00,,,0.00,LWC V2.10 B1813,2013-01-12 09:05:00,
2013-01-12 01:10:00,42.7,37.0,30.22,NNE,17,2.0,3.0,80,0.00,,,0.00,LWC V2.10 B1813,2013-01-12 09:10:00,
2013-01-12 01:15:00,42.6,37.2,30.23,NNW,346,2.0,2.0,81,0.00,,,0.00,LWC V2.10 B1813,2013-01-12 09:15:00,
2013-01-12 01:20:00,42.6,37.5,30.22,NNW,337,1.0,3.0,82,0.00,,,0.00,LWC V2.10 B1813,2013-01-12 09:20:00,
2013-01-12 01:25:00,42.6,37.5,30.22,NW,326,2.0,2.0,82,0.00,,,0.00,LWC V2.10 B1813,2013-01-12 09:25:00,
2013-01-12 01:30:00,42.5,37.4,30.23,NNW,335,1.0,2.0,82,0.00,,,0.00,LWC V2.10 B1813,2013-01-12 09:30:00,
2013-01-12 01:35:00,42.6,37.5,30.23,NW,322,2.0,2.0,82,0.00,,,0.00,LWC V2.10 B1813,2013-01-12 09:35:00,
2013-01-12 01:40:00,42.6,37.5,30.23,NNW,328,2.0,3.0,82,0.00,,,0.00,LWC V2.10 B1813,2013-01-12 09:40:00,
2013-01-12 01:45:00,42.6,37.5,30.23,NNW,332,0.0,1.0,82,0.00,,,0.00,LWC V2.10 B1813,2013-01-12 09:45:00,
2013-01-12 01:50:00,42.7,37.6,30.23,NNW,340,2.0,3.0,82,0.00,,,0.00,LWC V2.10 B1813,2013-01-12 09:50:00,
2013-01-12 01:55:00,43.0,37.6,30.23,NNW,329,1.0,2.0,81,0.00,,,0.00,LWC V2.10 B1813,2013-01-12 09:55:00,
2013-01-12 02:00:00,43.0,37.6,30.23,NNW,335,1.0,2.0,81,0.00,,,0.00,LWC V2.10 B1813,2013-01-12 10:00:00,
2013-01-12 02:05:00,43.1,37.7,30.23,NW,308,1.0,2.0,81,0.00,,,0.00,LWC V2.10 B1813,2013-01-12 10:05:00,
2013-01-12 02:10:00,43.0,37.3,30.24,NW,311,1.0,2.0,80,0.00,,,0.00,LWC V2.10 B1813,2013-01-12 10:10:00,
2013-01-12 02:15:00,42.9,37.2,30.24,NW,312,1.0,1.0,80,0.00,,,0.00,LWC V2.10 B1813,2013-01-12 10:15:00,
2013-01-12 02:20:00,42.8,37.7,30.24,NW,312,0.0,0.0,82,0.00,,,0.00,LWC V2.10 B1813,2013-01-12 10:20:00,
2013-01-12 02:25:00,42.5,37.7,30.24,West,274,0.0,1.0,83,0.00,,,0.00,LWC V2.10 B1813,2013-01-12 10:25:00,
2013-01-12 02:30:00,42.4,37.3,30.24,NW,306,0.0,0.0,82,0.00,,,0.00,LWC V2.10 B1813,2013-01-12 10:30:00,
2013-01-12 02:35:00,42.1,37.3,30.24,NW,306,0.0,0.0,83,0.00,,,0.00,LWC V2.10 B1813,2013-01-12 10:35:00,
2013-01-12 02:40:00,41.7,37.2,30.24,West,264,0.0,1.0,84,0.00,,,0.00,LWC V2.10 B1813,2013-01-12 10:40:00,
2013-01-12 02:45:00,41.5,37.3,30.24,West,265,0.0,0.0,85,0.00,,,0.00,LWC V2.10 B1813,2013-01-12 10:45:00,
2013-01-12 02:50:00,41.4,37.5,30.24,West,265,0.0,0.0,86,0.00,,,0.00,LWC V2.10 B1813,2013-01-12 10:50:00,
2013-01-12 02:55:00,41.1,36.9,30.24,West,268,0.0,1.0,85,0.00,,,0.00,LWC V2.10 B1813,2013-01-12 10:55:00,
2013-01-12 03:00:00,40.9,36.7,30.24,West,268,0.0,0.0,85,0.00,,,0.00,LWC V2.10 B1813,2013-01-12 11:00:00,
2013-01-12 03:05:00,40.5,36.6,30.24,West,268,0.0,0.0,86,0.00,,,0.00,LWC V2.10 B1813,2013-01-12 11:05:00,
2013-01-12 03:10:00,40.5,36.9,30.24,West,268,0.0,0.0,87,0.00,,,0.00,LWC V2.10 B1813,2013-01-12 11:10:00,
2013-01-12 03:15:00,40.3,36.7,30.24,West,268,0.0,0.0,87,0.00,,,0.00,LWC V2.10 B1813,2013-01-12 11:15:00,
2013-01-12 03:20:00,40.1,36.5,30.24,West,269,0.0,0.0,87,0.00,,,0.00,LWC V2.10 B1813,2013-01-12 11:20:00,
2013-01-12 03:25:00,40.1,36.8,30.24,West,268,0.0,0.0,88,0.00,,,0.00,LWC V2.10 B1813,2013-01-12 11:25:00,
2013-01-12 03:30:00,40.1,36.5,30.25,West,268,0.0,0.0,87,0.00,,,0.00,LWC V2.10 B1813,2013-01-12 11:30:00,
2013-01-12 03:35:00,40.1,36.5,30.25,West,268,0.0,0.0,87,0.00,,,0.00,LWC V2.10 B1813,2013-01-12 11:35:00,
2013-01-12 03:40:00,40.1,36.8,30.25,West,268,0.0,0.0,88,0.00,,,0.00,LWC V2.10 B1813,2013-01-12 11:40:00,
2013-01-12 03:45:00,40.1,36.8,30.25,West,268,0.0,0.0,88,0.00,,,0.00,LWC V2.10 B1813,2013-01-12 11:45:00,
2013-01-12 03:50:00,40.0,36.7,30.25,West,268,0.0,0.0,88,0.00,,,0.00,LWC V2.10 B1813,2013-01-12 11:50:00,
2013-01-12 03:55:00,39.9,36.9,30.25,West,268,0.0,0.0,89,0.00,,,0.00,LWC V2.10 B1813,2013-01-12 11:55:00,
2013-01-12 04:00:00,39.8,36.5,30.25,West,268,0.0,0.0,88,0.00,,,0.00,LWC V2.10 B1813,2013-01-12 12:00:00,
2013-01-12 04:05:00,39.6,36.1,30.25,West,268,0.0,0.0,87,0.00,,,0.00,LWC V2.10 B1813,2013-01-12 12:05:00,
2013-01-12 04:10:00,39.4,35.6,30.25,West,268,0.0,0.0,86,0.00,,,0.00,LWC V2.10 B1813,2013-01-12 12:10:00,
2013-01-12 04:15:00,39.4,35.9,30.25,West,268,0.0,0.0,87,0.00,,,0.00,LWC V2.10 B1813,2013-01-12 12:15:00,
2013-01-12 04:20:00,39.5,35.7,30.25,West,268,0.0,0.0,86,0.00,,,0.00,LWC V2.10 B1813,2013-01-12 12:20:00,
2013-01-12 04:25:00,39.5,35.4,30.25,West,268,0.0,0.0,85,0.00,,,0.00,LWC V2.10 B1813,2013-01-12 12:25:00,
2013-01-12 04:30:00,39.5,35.7,30.24,NNW,335,1.0,1.0,86,0.00,,,0.00,LWC V2.10 B1813,2013-01-12 12:30:00,
2013-01-12 04:35:00,39.5,35.4,30.25,NNW,337,1.0,1.0,85,0.00,,,0.00,LWC V2.10 B1813,2013-01-12 12:35:00,
2013-01-12 04:40:00,39.6,34.6,30.24,NW,326,2.0,3.0,82,0.00,,,0.00,LWC V2.10 B1813,2013-01-12 12:40:00,
2013-01-12 04:45:00,39.6,35.5,30.25,NNW,348,2.0,2.0,85,0.00,,,0.00,LWC V2.10 B1813,2013-01-12 12:45:00,
2013-01-12 04:50:00,39.6,35.8,30.24,North,351,1.0,1.0,86,0.00,,,0.00,LWC V2.10 B1813,2013-01-12 12:50:00,
2013-01-12 04:55:00,39.5,35.4,30.24,North,9,2.0,2.0,85,0.00,,,0.00,LWC V2.10 B1813,2013-01-12 12:55:00,
2013-01-12 05:00:00,39.3,35.5,30.24,NNW,332,1.0,2.0,86,0.00,,,0.00,LWC V2.10 B1813,2013-01-12 13:00:00,
2013-01-12 05:05:00,38.9,35.1,30.24,NW,324,1.0,1.0,86,0.00,,,0.00,LWC V2.10 B1813,2013-01-12 13:05:00,
2013-01-12 05:10:00,38.6,35.1,30.25,NW,324,0.0,1.0,87,0.00,,,0.00,LWC V2.10 B1813,2013-01-12 13:10:00,
2013-01-12 05:15:00,38.5,35.0,30.25,NW,323,2.0,2.0,87,0.00,,,0.00,LWC V2.10 B1813,2013-01-12 13:15:00,
2013-01-12 05:19:00,38.3,34.8,30.25,NW,308,2.0,2.0,87,0.00,,,0.00,LWC V2.10 B1813,2013-01-12 13:19:00,
2013-01-12 05:24:00,38.1,34.6,30.25,NNW,327,2.0,2.0,87,0.00,,,0.00,LWC V2.10 B1813,2013-01-12 13:24:00,
2013-01-12 05:29:00,37.9,34.4,30.25,NNW,328,1.0,1.0,87,0.00,,,0.00,LWC V2.10 B1813,2013-01-12 13:29:00,
2013-01-12 05:34:00,37.8,34.3,30.26,NNW,332,0.0,1.0,87,0.00,,,0.00,LWC V2.10 B1813,2013-01-12 13:34:00,
2013-01-12 05:39:00,37.6,34.4,30.26,NNW,332,0.0,0.0,88,0.00,,,0.00,LWC V2.10 B1813,2013-01-12 13:39:00,
2013-01-12 05:44:00,37.6,34.4,30.26,NNW,332,0.0,1.0,88,0.00,,,0.00,LWC V2.10 B1813,2013-01-12 13:44:00,
2013-01-12 05:49:00,37.8,34.6,30.26,NNW,340,0.0,0.0,88,0.00,,,0.00,LWC V2.10 B1813,2013-01-12 13:49:00,
2013-01-12 05:54:00,37.7,34.5,30.26,NNW,339,0.0,0.0,88,0.00,,,0.00,LWC V2.10 B1813,2013-01-12 13:54:00,
2013-01-12 05:59:00,37.6,34.9,30.26,NNW,338,1.0,1.0,90,0.00,,,0.00,LWC V2.10 B1813,2013-01-12 13:59:00,
2013-01-12 06:04:00,37.5,34.6,30.27,NNW,338,0.0,0.0,89,0.00,,,0.00,LWC V2.10 B1813,2013-01-12 14:04:00,
2013-01-12 06:09:00,37.5,34.0,30.27,NNW,338,1.0,1.0,87,0.00,,,0.00,LWC V2.10 B1813,2013-01-12 14:09:00,
2013-01-12 06:14:00,37.3,34.4,30.27,NNW,338,1.0,2.0,89,0.00,,,0.00,LWC V2.10 B1813,2013-01-12 14:14:00,
2013-01-12 06:19:00,37.3,34.4,30.27,NW,325,2.0,2.0,89,0.00,,,0.00,LWC V2.10 B1813,2013-01-12 14:19:00,
2013-01-12 06:24:00,37.1,33.9,30.28,NW,326,1.0,2.0,88,0.00,,,0.00,LWC V2.10 B1813,2013-01-12 14:24:00,
2013-01-12 06:29:00,36.9,33.7,30.28,NW,319,1.0,1.0,88,0.00,,,0.00,LWC V2.10 B1813,2013-01-12 14:29:00,
2013-01-12 06:34:00,36.9,33.7,30.28,NW,319,0.0,1.0,88,0.00,,,0.00,LWC V2.10 B1813,2013-01-12 14:34:00,
2013-01-12 06:39:00,36.9,33.7,30.28,NW,319,0.0,0.0,88,0.00,,,0.00,LWC V2.10 B1813,2013-01-12 14:39:00,
2013-01-12 06:44:00,36.9,33.7,30.28,NNW,342,1.0,2.0,88,0.00,,,0.00,LWC V2.10 B1813,2013-01-12 14:44:00,
2013-01-12 06:49:00,36.9,34.0,30.28,NNW,342,0.0,0.0,89,0.00,,,0.00,LWC V2.10 B1813,2013-01-12 14:49:00,
2013-01-12 06:54:00,37.1,34.2,30.28,NNW,342,0.0,0.0,89,0.00,,,0.00,LWC V2.10 B1813,2013-01-12 14:54:00,
2013-01-12 06:59:00,37.1,33.6,30.28,NW,317,1.0,1.0,87,0.00,,,0.00,LWC V2.10 B1813,2013-01-12 14:59:00,
2013-01-12 07:04:00,36.8,33.3,30.28,NW,317,0.0,1.0,87,0.00,,,0.00,LWC V2.10 B1813,2013-01-12 15:04:00,
2013-01-12 07:09:00,36.7,33.5,30.28,NW,317,0.0,0.0,88,0.00,,,0.00,LWC V2.10 B1813,2013-01-12 15:09:00,
2013-01-12 07:14:00,36.6,33.4,30.29,NNW,329,1.0,1.0,88,0.00,,,0.00,LWC V2.10 B1813,2013-01-12 15:14:00,
2013-01-12 07:19:00,36.6,33.7,30.29,North,355,2.0,2.0,89,0.00,,,0.00,LWC V2.10 B1813,2013-01-12 15:19:00,
2013-01-12 07:24:00,36.4,33.2,30.28,NW,319,0.0,1.0,88,0.00,,,0.00,LWC V2.10 B1813,2013-01-12 15:24:00,
2013-01-12 07:29:00,36.3,33.4,30.29,North,351,1.0,1.0,89,0.00,,,0.00,LWC V2.10 B1813,2013-01-12 15:29:00,
2013-01-12 07:34:00,36.4,33.8,30.29,NNW,343,1.0,2.0,90,0.00,,,0.00,LWC V2.10 B1813,2013-01-12 15:34:00,
2013-01-12 07:39:00,36.4,33.2,30.29,NNW,333,1.0,2.0,88,0.00,,,0.00,LWC V2.10 B1813,2013-01-12 15:39:00,
2013-01-12 07:44:00,36.3,33.1,30.29,NNW,332,1.0,1.0,88,0.00,,,0.00,LWC V2.10 B1813,2013-01-12 15:44:00,
2013-01-12 07:49:00,36.4,33.5,30.29,NW,321,1.0,1.0,89,0.00,,,0.00,LWC V2.10 B1813,2013-01-12 15:49:00,
2013-01-12 07:54:00,36.5,33.3,30.29,NNW,342,2.0,2.0,88,0.00,,,0.00,LWC V2.10 B1813,2013-01-12 15:54:00,
2013-01-12 07:59:00,36.6,33.7,30.29,NNW,329,2.0,2.0,89,0.00,,,0.00,LWC V2.10 B1813,2013-01-12 15:59:00,
2013-01-12 08:04:00,36.6,33.1,30.29,NNW,341,2.0,3.0,87,0.00,,,0.00,LWC V2.10 B1813,2013-01-12 16:04:00,
2013-01-12 08:09:00,36.7,33.5,30.29,NNE,22,2.0,2.0,88,0.00,,,0.00,LWC V2.10 B1813,2013-01-12 16:09:00,
2013-01-12 08:14:00,37.1,33.9,30.29,NNW,341,1.0,3.0,88,0.00,,,0.00,LWC V2.10 B1813,2013-01-12 16:14:00,
2013-01-12 08:19:00,37.6,34.4,30.30,NW,325,2.0,2.0,88,0.00,,,0.00,LWC V2.10 B1813,2013-01-12 16:19:00,
2013-01-12 08:24:00,37.7,33.9,30.30,NNW,335,1.0,2.0,86,0.00,,,0.00,LWC V2.10 B1813,2013-01-12 16:24:00,
2013-01-12 08:29:00,38.0,34.5,30.29,NNW,333,1.0,2.0,87,0.00,,,0.00,LWC V2.10 B1813,2013-01-12 16:29:00,
2013-01-12 08:34:00,38.4,34.9,30.29,NNE,12,1.0,1.0,87,0.00,,,0.00,LWC V2.10 B1813,2013-01-12 16:34:00,
2013-01-12 08:39:00,39.1,35.6,30.30,North,10,1.0,2.0,87,0.00,,,0.00,LWC V2.10 B1813,2013-01-12 16:39:00,
2013-01-12 08:44:00,39.6,35.5,30.30,NNW,344,2.0,2.0,85,0.00,,,0.00,LWC V2.10 B1813,2013-01-12 16:44:00,
2013-01-12 08:49:00,39.9,34.9,30.30,NW,325,2.0,2.0,82,0.00,,,0.00,LWC V2.10 B1813,2013-01-12 16:49:00,
2013-01-12 08:54:00,40.3,34.9,30.30,North,349,1.0,2.0,81,0.00,,,0.00,LWC V2.10 B1813,2013-01-12 16:54:00,
2013-01-12 08:59:00,40.8,35.1,30.30,NW,323,1.0,1.0,80,0.00,,,0.00,LWC V2.10 B1813,2013-01-12 16:59:00,
2013-01-12 09:04:00,41.2,35.2,30.30,NNE,29,2.0,2.0,79,0.00,,,0.00,LWC V2.10 B1813,2013-01-12 17:04:00,
2013-01-12 09:09:00,41.6,35.3,30.30,NNE,13,2.0,2.0,78,0.00,,,0.00,LWC V2.10 B1813,2013-01-12 17:09:00,
2013-01-12 09:14:00,41.8,35.5,30.30,North,11,0.0,1.0,78,0.00,,,0.00,LWC V2.10 B1813,2013-01-12 17:14:00,
2013-01-12 09:19:00,42.1,35.1,30.30,NNE,13,0.0,1.0,76,0.00,,,0.00,LWC V2.10 B1813,2013-01-12 17:19:00,
2013-01-12 09:24:00,42.5,35.8,30.30,NNE,12,0.0,0.0,77,0.00,,,0.00,LWC V2.10 B1813,2013-01-12 17:24:00,
2013-01-12 09:29:00,42.9,35.9,30.30,North,11,0.0,0.0,76,0.00,,,0.00,LWC V2.10 B1813,2013-01-12 17:29:00,
2013-01-12 09:34:00,43.4,36.7,30.30,NNE,12,0.0,0.0,77,0.00,,,0.00,LWC V2.10 B1813,2013-01-12 17:34:00,
2013-01-12 09:39:00,44.2,37.5,30.29,SE,125,0.0,0.0,77,0.00,,,0.00,LWC V2.10 B1813,2013-01-12 17:39:00,
2013-01-12 09:44:00,44.4,37.6,30.30,SSE,151,0.0,0.0,77,0.00,,,0.00,LWC V2.10 B1813,2013-01-12 17:44:00,
2013-01-12 09:49:00,45.1,38.7,30.29,SSE,164,1.0,1.0,78,0.00,,,0.00,LWC V2.10 B1813,2013-01-12 17:49:00,
2013-01-12 09:54:00,45.3,37.5,30.29,SE,141,2.0,2.0,74,0.00,,,0.00,LWC V2.10 B1813,2013-01-12 17:54:00,
2013-01-12 09:59:00,45.4,36.6,30.29,SE,138,1.0,2.0,71,0.00,,,0.00,LWC V2.10 B1813,2013-01-12 17:59:00,
2013-01-12 10:04:00,45.6,36.0,30.29,SE,144,2.0,3.0,69,0.00,,,0.00,LWC V2.10 B1813,2013-01-12 18:04:00,
2013-01-12 10:09:00,45.6,32.9,30.30,SSE,147,1.0,3.0,61,0.00,,,0.00,LWC V2.10 B1813,2013-01-12 18:09:00,
2013-01-12 10:14:00,45.9,32.8,30.30,SSE,164,0.0,3.0,60,0.00,,,0.00,LWC V2.10 B1813,2013-01-12 18:14:00,
2013-01-12 10:18:00,46.2,33.5,30.29,SE,136,3.0,4.0,61,0.00,,,0.00,LWC V2.10 B1813,2013-01-12 18:18:00,
2013-01-12 10:23:00,46.7,33.1,30.30,SSW,207,0.0,3.0,59,0.00,,,0.00,LWC V2.10 B1813,2013-01-12 18:23:00,
2013-01-12 10:28:00,47.1,32.7,30.30,SE,139,1.0,3.0,57,0.00,,,0.00,LWC V2.10 B1813,2013-01-12 18:28:00,
2013-01-12 10:33:00,47.1,32.7,30.29,SSW,209,2.0,3.0,57,0.00,,,0.00,LWC V2.10 B1813,2013-01-12 18:33:00,
2013-01-12 10:38:00,46.9,32.5,30.29,SSE,164,4.0,4.0,57,0.00,,,0.00,LWC V2.10 B1813,2013-01-12 18:38:00,
2013-01-12 10:43:00,46.9,32.5,30.29,SSE,167,2.0,4.0,57,0.00,,,0.00,LWC V2.10 B1813,2013-01-12 18:43:00,
2013-01-12 10:48:00,47.1,32.7,30.29,SSE,150,3.0,4.0,57,0.00,,,0.00,LWC V2.10 B1813,2013-01-12 18:48:00,
2013-01-12 10:53:00,47.1,32.2,30.29,SE,138,3.0,4.0,56,0.00,,,0.00,LWC V2.10 B1813,2013-01-12 18:53:00,
2013-01-12 10:58:00,47.0,29.3,30.28,SSE,148,2.0,4.0,50,0.00,,,0.00,LWC V2.10 B1813,2013-01-12 18:58:00,
2013-01-12 11:03:00,47.1,31.8,30.28,SSE,155,2.0,4.0,55,0.00,,,0.00,LWC V2.10 B1813,2013-01-12 19:03:00,
2013-01-12 11:08:00,47.1,30.9,30.28,ESE,123,2.0,3.0,53,0.00,,,0.00,LWC V2.10 B1813,2013-01-12 19:08:00,
2013-01-12 11:13:00,47.3,30.6,30.27,SE,130,2.0,3.0,52,0.00,,,0.00,LWC V2.10 B1813,2013-01-12 19:13:00,
2013-01-12 11:18:00,47.5,28.8,30.27,SE,134,3.0,4.0,48,0.00,,,0.00,LWC V2.10 B1813,2013-01-12 19:18:00,
2013-01-12 11:23:00,47.4,26.6,30.27,SE,124,4.0,5.0,44,0.00,,,0.00,LWC V2.10 B1813,2013-01-12 19:23:00,
2013-01-12 11:28:00,47.4,27.1,30.27,SE,141,3.0,4.0,45,0.00,,,0.00,LWC V2.10 B1813,2013-01-12 19:28:00,
2013-01-12 11:33:00,47.4,27.7,30.26,SE,128,3.0,3.0,46,0.00,,,0.00,LWC V2.10 B1813,2013-01-12 19:33:00,
2013-01-12 11:38:00,47.5,28.8,30.26,SSE,153,2.0,3.0,48,0.00,,,0.00,LWC V2.10 B1813,2013-01-12 19:38:00,
2013-01-12 11:43:00,47.6,29.4,30.26,ESE,123,3.0,3.0,49,0.00,,,0.00,LWC V2.10 B1813,2013-01-12 19:43:00,
2013-01-12 11:48:00,48.3,30.0,30.25,SSE,161,1.0,3.0,49,0.00,,,0.00,LWC V2.10 B1813,2013-01-12 19:48:00,
2013-01-12 11:53:00,48.4,30.1,30.25,SE,145,2.0,3.0,49,0.00,,,0.00,LWC V2.10 B1813,2013-01-12 19:53:00,
2013-01-12 11:58:00,48.7,29.9,30.25,SSE,163,2.0,3.0,48,0.00,,,0.00,LWC V2.10 B1813,2013-01-12 19:58:00,
2013-01-12 12:03:00,49.2,30.4,30.25,SE,136,1.0,2.0,48,0.00,,,0.00,LWC V2.10 B1813,2013-01-12 20:03:00,
2013-01-12 12:08:00,49.3,30.4,30.25,SSE,153,2.0,2.0,48,0.00,,,0.00,LWC V2.10 B1813,2013-01-12 20:08:00,
2013-01-12 13:18:00,49.7,30.3,30.21,SE,133,3.0,3.0,47,0.00,,,0.00,WeatherCatV1.12B45,2013-01-12 21:18:00,
2013-01-12 13:23:00,49.5,29.0,30.21,SSE,147,3.0,3.0,45,0.00,,,0.00,WeatherCatV1.12B45,2013-01-12 21:23:00,
2013-01-12 13:28:00,49.7,29.2,30.21,SSE,151,1.0,2.0,45,0.00,,,0.00,WeatherCatV1.12B45,2013-01-12 21:28:00,
2013-01-12 13:33:00,49.9,28.9,30.21,South,175,2.0,3.0,44,0.00,,,0.00,WeatherCatV1.12B45,2013-01-12 21:33:00,
2013-01-12 13:38:00,49.6,29.1,30.21,South,178,3.0,3.0,45,0.00,,,0.00,WeatherCatV1.12B45,2013-01-12 21:38:00,
2013-01-12 13:43:00,49.8,29.3,30.21,SE,144,2.0,3.0,45,0.00,,,0.00,WeatherCatV1.12B45,2013-01-12 21:43:00,
2013-01-12 13:48:00,49.4,28.4,30.21,South,191,2.0,4.0,44,0.00,,,0.00,WeatherCatV1.12B45,2013-01-12 21:48:00,
2013-01-12 13:53:00,49.8,28.8,30.21,SW,230,2.0,2.0,44,0.00,,,0.00,WeatherCatV1.12B45,2013-01-12 21:53:00,
2013-01-12 13:58:00,50.1,27.3,30.21,South,170,2.0,3.0,41,0.00,,,0.00,WeatherCatV1.12B45,2013-01-12 21:58:00,
2013-01-12 14:03:00,49.8,28.8,30.21,SSE,167,2.0,3.0,44,0.00,,,0.00,WeatherCatV1.12B45,2013-01-12 22:03:00,
2013-01-12 14:08:00,49.9,27.7,30.21,SSE,157,1.0,2.0,42,0.00,,,0.00,WeatherCatV1.12B45,2013-01-12 22:08:00,
2013-01-12 14:13:00,50.1,27.9,30.21,SE,132,1.0,2.0,42,0.00,,,0.00,WeatherCatV1.12B45,2013-01-12 22:13:00,
2013-01-12 14:18:00,49.6,28.0,30.20,SE,125,2.0,3.0,43,0.00,,,0.00,WeatherCatV1.12B45,2013-01-12 22:18:00,
2013-01-12 14:23:00,49.6,28.6,30.20,ESE,123,2.0,3.0,44,0.00,,,0.00,WeatherCatV1.12B45,2013-01-12 22:23:00,
2013-01-12 14:28:00,49.6,25.0,30.20,ESE,122,2.0,3.0,38,0.00,,,0.00,WeatherCatV1.12B45,2013-01-12 22:28:00,
2013-01-12 14:33:00,49.8,25.2,30.20,SE,133,2.0,3.0,38,0.00,,,0.00,WeatherCatV1.12B45,2013-01-12 22:33:00,
2013-01-12 14:38:00,49.7,22.5,30.20,SE,128,2.0,3.0,34,0.00,,,0.00,WeatherCatV1.12B45,2013-01-12 22:38:00,
2013-01-12 14:43:00,49.7,23.8,30.20,ESE,105,0.0,1.0,36,0.00,,,0.00,WeatherCatV1.12B45,2013-01-12 22:43:00,
2013-01-12 14:48:00,50.0,23.4,30.20,SSE,150,2.0,2.0,35,0.00,,,0.00,WeatherCatV1.12B45,2013-01-12 22:48:00,
2013-01-12 14:53:00,50.2,22.9,30.20,SE,124,1.0,2.0,34,0.00,,,0.00,WeatherCatV1.12B45,2013-01-12 22:53:00,
2013-01-12 14:58:00,50.3,27.5,30.20,SE,138,1.0,3.0,41,0.00,,,0.00,WeatherCatV1.12B45,2013-01-12 22:58:00,
2013-01-12 15:03:00,50.9,28.6,30.20,SE,136,1.0,2.0,42,0.00,,,0.00,WeatherCatV1.12B45,2013-01-12 23:03:00,
2013-01-12 15:08:00,50.9,26.2,30.20,SSW,213,0.0,2.0,38,0.00,,,0.00,WeatherCatV1.12B45,2013-01-12 23:08:00,
2013-01-12 15:13:00,51.3,28.4,30.19,South,186,1.0,3.0,41,0.00,,,0.00,WeatherCatV1.12B45,2013-01-12 23:13:00,
2013-01-12 15:18:00,51.2,28.3,30.19,SE,129,2.0,4.0,41,0.00,,,0.00,WeatherCatV1.12B45,2013-01-12 23:18:00,
2013-01-12 15:23:00,50.8,28.5,30.19,SSE,153,2.0,3.0,42,0.00,,,0.00,WeatherCatV1.12B45,2013-01-12 23:23:00,
2013-01-12 15:28:00,50.3,28.1,30.19,South,171,3.0,3.0,42,0.00,,,0.00,WeatherCatV1.12B45,2013-01-12 23:28:00,
2013-01-12 15:33:00,50.1,29.0,30.19,SSE,164,2.0,3.0,44,0.00,,,0.00,WeatherCatV1.12B45,2013-01-12 23:33:00,
2013-01-12 15:38:00,50.1,27.9,30.19,SE,139,2.0,4.0,42,0.00,,,0.00,WeatherCatV1.12B45,2013-01-12 23:38:00,
2013-01-12 15:43:00,50.3,29.2,30.19,WSW,238,0.0,3.0,44,0.00,,,0.00,WeatherCatV1.12B45,2013-01-12 23:43:00,
2013-01-12 15:48:00,51.2,30.0,30.19,West,274,1.0,1.0,44,0.00,,,0.00,WeatherCatV1.12B45,2013-01-12 23:48:00,
2013-01-12 15:53:00,51.3,29.6,30.19,NW,306,2.0,3.0,43,0.00,,,0.00,WeatherCatV1.12B45,2013-01-12 23:53:00,
2013-01-12 15:58:00,50.7,30.1,30.19,WNW,298,1.0,2.0,45,0.00,,,0.00,WeatherCatV1.12B45,2013-01-12 23:58:00,
2013-01-12 16:03:00,50.3,30.3,30.19,West,273,0.0,1.0,46,0.00,,,0.00,WeatherCatV1.12B45,2013-01-13 00:03:00,
2013-01-12 16:08:00,49.6,31.7,30.19,West,266,0.0,0.0,50,0.00,,,0.00,WeatherCatV1.12B45,2013-01-13 00:08:00,
2013-01-12 16:13:00,48.7,30.4,30.19,WNW,282,1.0,2.0,49,0.00,,,0.00,WeatherCatV1.12B45,2013-01-13 00:13:00,
2013-01-12 16:18:00,48.0,31.2,30.19,West,259,0.0,1.0,52,0.00,,,0.00,WeatherCatV1.12B45,2013-01-13 00:18:00,
2013-01-12 16:23:00,47.5,32.1,30.19,West,259,0.0,1.0,55,0.00,,,0.00,WeatherCatV1.12B45,2013-01-13 00:23:00,
2013-01-12 16:28:00,46.9,32.0,30.19,West,263,0.0,1.0,56,0.00,,,0.00,WeatherCatV1.12B45,2013-01-13 00:28:00,
2013-01-12 16:33:00,46.5,32.1,30.19,West,263,1.0,1.0,57,0.00,,,0.00,WeatherCatV1.12B45,2013-01-13 00:33:00,
2013-01-12 16:38:00,46.2,33.1,30.20,West,263,0.0,1.0,60,0.00,,,0.00,WeatherCatV1.12B45,2013-01-13 00:38:00,
2013-01-12 16:43:00,45.9,32.4,30.19,West,259,0.0,1.0,59,0.00,,,0.00,WeatherCatV1.12B45,2013-01-13 00:43:00,
2013-01-12 16:48:00,45.8,32.7,30.19,West,263,0.0,1.0,60,0.00,,,0.00,WeatherCatV1.12B45,2013-01-13 00:48:00,
2013-01-12 16:53:00,45.6,32.5,30.19,WSW,247,0.0,1.0,60,0.00,,,0.00,WeatherCatV1.12B45,2013-01-13 00:53:00,
2013-01-12 16:58:00,45.4,32.7,30.19,West,267,0.0,1.0,61,0.00,,,0.00,WeatherCatV1.12B45,2013-01-13 00:58:00,
2013-01-12 17:03:00,45.2,33.0,30.19,West,266,0.0,1.0,62,0.00,,,0.00,WeatherCatV1.12B45,2013-01-13 01:03:00,
2013-01-12 17:08:00,45.1,33.7,30.19,West,278,0.0,1.0,64,0.00,,,0.00,WeatherCatV1.12B45,2013-01-13 01:08:00,
2013-01-12 17:13:00,45.1,33.3,30.19,West,276,0.0,1.0,63,0.00,,,0.00,WeatherCatV1.12B45,2013-01-13 01:13:00,
2013-01-12 17:18:00,45.2,33.0,30.20,West,263,0.0,2.0,62,0.00,,,0.00,WeatherCatV1.12B45,2013-01-13 01:18:00,
2013-01-12 17:23:00,45.5,33.2,30.20,WSW,251,0.0,1.0,62,0.00,,,0.00,WeatherCatV1.12B45,2013-01-13 01:23:00,
2013-01-12 17:28:00,45.6,34.1,30.20,West,272,0.0,2.0,64,0.00,,,0.00,WeatherCatV1.12B45,2013-01-13 01:28:00,
2013-01-12 17:33:00,45.7,33.8,30.20,NW,324,1.0,2.0,63,0.00,,,0.00,WeatherCatV1.12B45,2013-01-13 01:33:00,
2013-01-12 17:38:00,45.6,34.9,30.20,NNE,18,1.0,2.0,66,0.00,,,0.00,WeatherCatV1.12B45,2013-01-13 01:38:00,
2013-01-12 17:43:00,45.5,34.4,30.20,NNW,338,1.0,2.0,65,0.00,,,0.00,WeatherCatV1.12B45,2013-01-13 01:43:00,
2013-01-12 17:48:00,45.5,34.4,30.20,NNW,327,1.0,2.0,65,0.00,,,0.00,WeatherCatV1.12B45,2013-01-13 01:48:00,
2013-01-12 17:53:00,45.5,34.4,30.21,NW,323,0.0,1.0,65,0.00,,,0.00,WeatherCatV1.12B45,2013-01-13 01:53:00,
2013-01-12 18:02:00,45.4,34.3,30.21,NW,308,1.0,1.0,65,0.00,,,0.00,WeatherCatV1.12B45,2013-01-13 02:02:00,
2013-01-12 18:07:00,45.6,33.7,30.20,WNW,292,1.0,1.0,63,0.00,,,0.00,WeatherCatV1.12B45,2013-01-13 02:07:00,
2013-01-12 18:12:00,45.6,33.3,30.20,NW,306,1.0,2.0,62,0.00,,,0.00,WeatherCatV1.12B45,2013-01-13 02:12:00,
2013-01-12 18:16:00,45.7,33.4,30.21,NW,306,1.0,1.0,62,0.00,,,0.00,WeatherCatV1.12B45,2013-01-13 02:16:00,
2013-01-12 18:21:00,45.7,33.4,30.21,NW,306,0.0,1.0,62,0.00,,,0.00,WeatherCatV1.12B45,2013-01-13 02:21:00,
2013-01-12 18:26:00,45.7,35.0,30.21,NW,307,0.0,0.0,66,0.00,,,0.00,WeatherCatV1.12B45,2013-01-13 02:26:00,
2013-01-12 18:31:00,45.7,35.4,30.21,NW,307,0.0,0.0,67,0.00,,,0.00,WeatherCatV1.12B45,2013-01-13 02:31:00,
2013-01-12 18:36:00,45.6,35.3,30.21,NW,307,0.0,0.0,67,0.00,,,0.00,WeatherCatV1.12B45,2013-01-13 02:36:00,
2013-01-12 18:41:00,45.5,34.8,30.20,NW,322,0.0,1.0,66,0.00,,,0.00,WeatherCatV1.12B45,2013-01-13 02:41:00,
2013-01-12 18:46:00,45.3,35.0,30.20,NW,323,1.0,1.0,67,0.00,,,0.00,WeatherCatV1.12B45,2013-01-13 02:46:00,
2013-01-12 18:51:00,45.3,33.1,30.20,NW,320,2.0,2.0,62,0.00,,,0.00,WeatherCatV1.12B45,2013-01-13 02:51:00,
2013-01-12 18:56:00,45.4,33.2,30.20,NNW,327,1.0,1.0,62,0.00,,,0.00,WeatherCatV1.12B45,2013-01-13 02:56:00,
2013-01-12 19:01:00,45.4,33.9,30.19,NNW,336,0.0,1.0,64,0.00,,,0.00,WeatherCatV1.12B45,2013-01-13 03:01:00,
2013-01-12 19:06:00,45.4,33.9,30.19,North,355,0.0,1.0,64,0.00,,,0.00,WeatherCatV1.12B45,2013-01-13 03:06:00,
2013-01-12 19:11:00,45.5,34.4,30.20,North,355,1.0,1.0,65,0.00,,,0.00,WeatherCatV1.12B45,2013-01-13 03:11:00,
2013-01-12 19:16:00,45.6,36.0,30.20,East,84,0.0,1.0,69,0.00,,,0.00,WeatherCatV1.12B45,2013-01-13 03:16:00,
2013-01-12 19:21:00,45.7,37.2,30.20,NNE,32,2.0,3.0,72,0.00,,,0.00,WeatherCatV1.12B45,2013-01-13 03:21:00,
2013-01-12 19:26:00,45.7,37.2,30.20,NNW,339,1.0,2.0,72,0.00,,,0.00,WeatherCatV1.12B45,2013-01-13 03:26:00,
2013-01-12 19:31:00,45.6,36.7,30.20,NW,309,2.0,2.0,71,0.00,,,0.00,WeatherCatV1.12B45,2013-01-13 03:31:00,
2013-01-12 19:36:00,45.4,36.9,30.21,NNW,334,1.0,2.0,72,0.00,,,0.00,WeatherCatV1.12B45,2013-01-13 03:36:00,
2013-01-12 19:41:00,45.3,36.8,30.21,NW,319,1.0,2.0,72,0.00,,,0.00,WeatherCatV1.12B45,2013-01-13 03:41:00,
2013-01-12 19:46:00,45.3,37.5,30.21,NW,320,2.0,2.0,74,0.00,,,0.00,WeatherCatV1.12B45,2013-01-13 03:46:00,
2013-01-12 19:51:00,45.2,36.7,30.21,NW,306,2.0,2.0,72,0.00,,,0.00,WeatherCatV1.12B45,2013-01-13 03:51:00,
2013-01-12 19:56:00,45.1,36.6,30.21,NW,307,1.0,1.0,72,0.00,,,0.00,WeatherCatV1.12B45,2013-01-13 03:56:00,
2013-01-12 20:01:00,45.1,36.3,30.21,WNW,296,0.0,1.0,71,0.00,,,0.00,WeatherCatV1.12B45,2013-01-13 04:01:00,
2013-01-12 20:06:00,45.0,35.8,30.21,WNW,296,0.0,0.0,70,0.00,,,0.00,WeatherCatV1.12B45,2013-01-13 04:06:00,
2013-01-12 20:11:00,44.9,35.7,30.21,WNW,299,0.0,1.0,70,0.00,,,0.00,WeatherCatV1.12B45,2013-01-13 04:11:00,
2013-01-12 20:16:00,44.9,34.6,30.21,NNW,334,1.0,1.0,67,0.00,,,0.00,WeatherCatV1.12B45,2013-01-13 04:16:00,
2013-01-12 20:21:00,44.8,34.1,30.21,NNW,334,0.0,1.0,66,0.00,,,0.00,WeatherCatV1.12B45,2013-01-13 04:21:00,
2013-01-12 20:26:00,44.4,33.8,30.21,NW,325,1.0,2.0,66,0.00,,,0.00,WeatherCatV1.12B45,2013-01-13 04:26:00,
2013-01-12 20:31:00,43.9,33.7,30.21,NW,310,0.0,1.0,67,0.00,,,0.00,WeatherCatV1.12B45,2013-01-13 04:31:00,
2013-01-12 20:36:00,43.4,34.3,30.20,NW,311,0.0,0.0,70,0.00,,,0.00,WeatherCatV1.12B45,2013-01-13 04:36:00,
2013-01-12 20:41:00,43.1,34.3,30.20,NW,311,0.0,0.0,71,0.00,,,0.00,WeatherCatV1.12B45,2013-01-13 04:41:00,
2013-01-12 20:46:00,42.8,34.1,30.20,NW,325,1.0,1.0,71,0.00,,,0.00,WeatherCatV1.12B45,2013-01-13 04:46:00,
2013-01-12 20:51:00,42.7,32.5,30.20,North,9,1.0,2.0,67,0.00,,,0.00,WeatherCatV1.12B45,2013-01-13 04:51:00,
2013-01-12 20:56:00,42.5,32.0,30.20,North,349,1.0,1.0,66,0.00,,,0.00,WeatherCatV1.12B45,2013-01-13 04:56:00,
2013-01-12 21:00:00,42.4,32.6,30.20,NW,321,0.0,1.0,68,0.00,,,0.00,WeatherCatV1.12B45,2013-01-13 05:00:00,
2013-01-12 21:01:00,42.3,32.1,30.20,NW,321,0.0,0.0,67,0.00,,,0.00,WeatherCatV1.12B45,2013-01-13 05:01:00,
2013-01-12 21:02:00,42.3,32.5,30.20,NW,321,0.0,1.0,68,0.00,,,0.00,WeatherCatV1.12B45,2013-01-13 05:02:00,
2013-01-12 21:04:00,42.1,32.3,30.20,NW,321,1.0,1.0,68,0.00,,,0.00,WeatherCatV1.12B45,2013-01-13 05:04:00,
2013-01-12 21:09:00,41.9,32.5,30.21,NW,321,0.0,1.0,69,0.00,,,0.00,WeatherCatV1.12B45,2013-01-13 05:09:00,
2013-01-12 21:14:00,41.7,32.6,30.21,NNW,333,1.0,1.0,70,0.00,,,0.00,WeatherCatV1.12B45,2013-01-13 05:14:00,
2013-01-12 21:19:00,41.5,32.8,30.21,NW,308,1.0,2.0,71,0.00,,,0.00,WeatherCatV1.12B45,2013-01-13 05:19:00,
2013-01-12 21:24:00,41.5,33.5,30.21,NW,313,2.0,2.0,73,0.00,,,0.00,WeatherCatV1.12B45,2013-01-13 05:24:00,
2013-01-12 21:29:00,41.6,33.3,30.21,NW,307,2.0,2.0,72,0.00,,,0.00,WeatherCatV1.12B45,2013-01-13 05:29:00,
2013-01-12 21:34:00,41.5,32.8,30.21,NNW,340,1.0,3.0,71,0.00,,,0.00,WeatherCatV1.12B45,2013-01-13 05:34:00,
2013-01-12 21:39:00,41.6,33.6,30.21,NNW,338,1.0,1.0,73,0.00,,,0.00,WeatherCatV1.12B45,2013-01-13 05:39:00,
2013-01-12 21:44:00,41.7,33.3,30.21,NW,324,1.0,2.0,72,0.00,,,0.00,WeatherCatV1.12B45,2013-01-13 05:44:00,
2013-01-12 21:49:00,41.7,33.7,30.21,NNW,338,2.0,2.0,73,0.00,,,0.00,WeatherCatV1.12B45,2013-01-13 05:49:00,
2013-01-12 21:54:00,41.5,34.2,30.21,NNW,346,2.0,2.0,75,0.00,,,0.00,WeatherCatV1.12B45,2013-01-13 05:54:00,
2013-01-12 21:59:00,41.4,34.4,30.21,NNW,336,1.0,3.0,76,0.00,,,0.00,WeatherCatV1.12B45,2013-01-13 05:59:00,
2013-01-12 22:04:00,41.2,34.2,30.21,NW,325,1.0,2.0,76,0.00,,,0.00,WeatherCatV1.12B45,2013-01-13 06:04:00,
2013-01-12 22:09:00,41.1,34.8,30.22,NNW,327,1.0,1.0,78,0.00,,,0.00,WeatherCatV1.12B45,2013-01-13 06:09:00,
2013-01-12 22:14:00,41.2,34.5,30.22,NW,319,2.0,3.0,77,0.00,,,0.00,WeatherCatV1.12B45,2013-01-13 06:14:00,
2013-01-12 22:19:00,41.3,35.0,30.22,NW,324,2.0,4.0,78,0.00,,,0.00,WeatherCatV1.12B45,2013-01-13 06:19:00,
2013-01-12 22:24:00,41.3,34.6,30.22,NNW,331,2.0,2.0,77,0.00,,,0.00,WeatherCatV1.12B45,2013-01-13 06:24:00,
2013-01-12 22:29:00,41.5,34.8,30.22,NNW,345,2.0,2.0,77,0.00,,,0.00,WeatherCatV1.12B45,2013-01-13 06:29:00,
2013-01-12 22:34:00,41.5,34.8,30.23,NNW,336,3.0,4.0,77,0.00,,,0.00,WeatherCatV1.12B45,2013-01-13 06:34:00,
2013-01-12 22:39:00,41.5,35.2,30.23,NNW,339,3.0,3.0,78,0.00,,,0.00,WeatherCatV1.12B45,2013-01-13 06:39:00,
2013-01-12 22:44:00,41.2,35.2,30.23,NNW,338,2.0,3.0,79,0.00,,,0.00,WeatherCatV1.12B45,2013-01-13 06:44:00,
2013-01-12 22:49:00,41.2,35.5,30.23,NW,324,1.0,3.0,80,0.00,,,0.00,WeatherCatV1.12B45,2013-01-13 06:49:00,
2013-01-12 22:54:00,41.4,34.1,30.23,NW,315,2.0,4.0,75,0.00,,,0.00,WeatherCatV1.12B45,2013-01-13 06:54:00,
2013-01-12 22:59:00,41.2,33.9,30.24,NW,314,3.0,3.0,75,0.00,,,0.00,WeatherCatV1.12B45,2013-01-13 06:59:00,
2013-01-12 23:04:00,41.0,33.7,30.23,NW,304,2.0,3.0,75,0.00,,,0.00,WeatherCatV1.12B45,2013-01-13 07:04:00,
2013-01-12 23:09:00,40.9,33.6,30.24,NNW,329,2.0,3.0,75,0.00,,,0.00,WeatherCatV1.12B45,2013-01-13 07:09:00,
2013-01-12 23:14:00,40.7,33.4,30.24,NW,319,2.0,4.0,75,0.00,,,0.00,WeatherCatV1.12B45,2013-01-13 07:14:00,
2013-01-12 23:19:00,40.6,33.0,30.24,NW,325,3.0,3.0,74,0.00,,,0.00,WeatherCatV1.12B45,2013-01-13 07:19:00,
2013-01-12 23:24:00,40.6,33.0,30.24,NNW,329,2.0,3.0,74,0.00,,,0.00,WeatherCatV1.12B45,2013-01-13 07:24:00,
2013-01-12 23:29:00,40.6,32.6,30.25,NW,321,2.0,3.0,73,0.00,,,0.00,WeatherCatV1.12B45,2013-01-13 07:29:00,
2013-01-12 23:34:00,40.6,32.6,30.25,NW,319,3.0,3.0,73,0.00,,,0.00,WeatherCatV1.12B45,2013-01-13 07:34:00,
2013-01-12 23:39:00,40.4,32.4,30.25,NW,323,2.0,3.0,73,0.00,,,0.00,WeatherCatV1.12B45,2013-01-13 07:39:00,
2013-01-12 23:44:00,40.3,32.7,30.25,North,349,2.0,3.0,74,0.00,,,0.00,WeatherCatV1.12B45,2013-01-13 07:44:00,
2013-01-12 23:49:00,40.2,32.2,30.25,NW,315,4.0,5.0,73,0.00,,,0.00,WeatherCatV1.12B45,2013-01-13 07:49:00,
2013-01-12 23:54:00,40.1,32.2,30.25,NW,312,1.0,3.0,73,0.00,,,0.00,WeatherCatV1.12B45,2013-01-13 07:54:00,
2013-01-12 23:59:00,40.4,32.1,30.25,NNW,327,1.0,4.0,72,0.00,,,0.00,WeatherCatV1.12B45,2013-01-13 07:59:00,